Time;durP1;ratioP1;P1;durP2;ratioP2;P2;SDS_P1;SDS_P2;PMS_P1;PMS_P2;Temp;Humidity;BMP_temperature;BMP_pressure;BME280_temperature;BME280_humidity;BME280_pressure;Samples;Min_cycle;Max_cycle;Signal;HPM_P1;HPM_P2
2021/10/13 00:00:00;;;;;;;13.32;11.35;;;;;;;11.46;66.78;100389.05;459599;113;922700;-73
2021/10/13 00:01:05;;;;;;;11.97;10.87;;;;;;;11.47;66.75;100382.50;459802;113;923112;-73
2021/10/13 00:02:09;;;;;;;12.51;11.06;;;;;;;11.47;66.67;100382.50;459595;113;922699;-74
2021/10/13 00:03:12;;;;;;;11.79;10.76;;;;;;;11.45;66.54;100384.64;453972;113;922722;-73
2021/10/13 00:04:16;;;;;;;11.17;10.08;;;;;;;11.44;66.43;100388.42;451692;116;922549;-72
2021/10/13 00:05:19;;;;;;;11.70;10.63;;;;;;;11.41;66.37;100388.89;451163;116;923067;-72
2021/10/13 00:06:24;;;;;;;12.18;11.06;;;;;;;11.38;66.42;100383.86;452341;116;922571;-72
2021/10/13 00:07:27;;;;;;;13.55;10.89;;;;;;;11.35;66.44;100381.59;452148;115;923506;-72
2021/10/13 00:08:31;;;;;;;12.43;10.86;;;;;;;11.35;66.42;100381.59;452389;115;922617;-73
2021/10/13 00:09:34;;;;;;;12.85;11.58;;;;;;;11.32;66.46;100382.03;452920;115;922706;-72
2021/10/13 00:10:39;;;;;;;12.64;10.93;;;;;;;11.31;66.55;100383.92;452854;116;922908;-73
2021/10/13 00:11:43;;;;;;;11.89;10.86;;;;;;;11.31;66.60;100370.27;451804;115;922731;-73
2021/10/13 00:12:46;;;;;;;13.20;11.99;;;;;;;11.32;66.63;100376.57;452042;116;922649;-73
2021/10/13 00:13:49;;;;;;;11.84;10.59;;;;;;;11.33;66.62;100368.16;452725;115;922936;-73
2021/10/13 00:14:53;;;;;;;11.84;10.67;;;;;;;11.34;66.61;100371.73;452721;116;930362;-73
2021/10/13 00:15:58;;;;;;;12.62;10.25;;;;;;;11.36;66.60;100375.08;452456;115;922579;-74
2021/10/13 00:17:05;;;;;;;12.57;11.22;;;;;;;11.36;66.52;100378.62;452218;115;922812;-72
2021/10/13 00:18:09;;;;;;;13.16;11.66;;;;;;;11.37;66.46;100374.00;452371;115;922725;-73
2021/10/13 00:19:13;;;;;;;12.29;10.92;;;;;;;11.37;66.41;100368.54;452637;116;922469;-73
2021/10/13 00:20:16;;;;;;;12.26;11.06;;;;;;;11.36;66.39;100370.43;452362;115;922940;-73
2021/10/13 00:21:20;;;;;;;13.03;11.56;;;;;;;11.36;66.35;100367.70;452595;115;922624;-73
2021/10/13 00:22:24;;;;;;;12.93;11.63;;;;;;;11.36;66.28;100369.63;453804;116;922991;-72
2021/10/13 00:23:27;;;;;;;14.56;10.98;;;;;;;11.36;66.25;100361.44;446371;118;924031;-72
2021/10/13 00:24:30;;;;;;;12.02;11.04;;;;;;;11.35;66.21;100365.22;446166;117;923193;-72
2021/10/13 00:25:34;;;;;;;12.14;11.01;;;;;;;11.34;66.17;100363.55;452556;115;922578;-73
2021/10/13 00:26:38;;;;;;;12.88;11.56;;;;;;;11.34;66.13;100353.46;437973;119;923096;-73
2021/10/13 00:27:41;;;;;;;12.04;10.30;;;;;;;11.35;66.12;100357.03;443033;118;930423;-73
2021/10/13 00:28:44;;;;;;;15.93;11.83;;;;;;;11.34;66.04;100350.73;439951;119;930400;-73
2021/10/13 00:29:47;;;;;;;12.65;11.53;;;;;;;11.35;65.98;100354.30;440570;119;922472;-73
2021/10/13 00:30:51;;;;;;;14.31;11.78;;;;;;;11.34;65.96;100352.63;434683;120;923166;-73
2021/10/13 00:31:54;;;;;;;13.11;11.76;;;;;;;11.34;65.92;100356.19;439506;120;930530;-73
2021/10/13 00:32:58;;;;;;;14.97;11.73;;;;;;;11.34;65.91;100358.09;439018;118;930420;-73
2021/10/13 00:34:02;;;;;;;13.03;11.35;;;;;;;11.34;65.85;100360.81;438764;118;923026;-72
2021/10/13 00:35:05;;;;;;;12.21;11.06;;;;;;;11.31;65.87;100351.16;438935;120;930487;-72
2021/10/13 00:36:08;;;;;;;12.72;11.49;;;;;;;11.31;65.88;100362.09;439135;118;923077;-72
2021/10/13 00:37:12;;;;;;;12.61;11.39;;;;;;;11.30;65.98;100358.52;436014;119;923018;-73
2021/10/13 00:38:15;;;;;;;12.61;11.41;;;;;;;11.29;66.01;100367.79;436314;119;923054;-73
2021/10/13 00:39:18;;;;;;;13.87;12.13;;;;;;;11.30;66.01;100363.17;438078;119;922540;-74
2021/10/13 00:40:24;;;;;;;14.47;12.98;;;;;;;11.29;66.03;100362.33;439022;119;922901;-73
2021/10/13 00:41:28;;;;;;;14.16;12.52;;;;;;;11.29;66.03;100359.60;435756;120;930376;-73
2021/10/13 00:42:31;;;;;;;15.75;13.78;;;;;;;11.28;66.01;100357.92;445893;118;922441;-71
2021/10/13 00:43:36;;;;;;;15.56;13.50;;;;;;;11.28;66.01;100352.47;438653;120;930433;-73
2021/10/13 00:44:41;;;;;;;15.81;14.26;;;;;;;11.28;65.98;100349.73;429563;120;922938;-73
2021/10/13 00:45:45;;;;;;;14.71;13.36;;;;;;;11.28;65.96;100349.73;438080;119;923190;-73
2021/10/13 00:46:50;;;;;;;20.16;14.62;;;;;;;11.28;65.94;100357.09;438120;120;923275;-73
2021/10/13 00:47:53;;;;;;;17.65;14.09;;;;;;;11.27;65.93;100356.25;442570;118;922998;-73
2021/10/13 00:48:57;;;;;;;15.13;13.60;;;;;;;11.27;65.91;100353.52;436487;120;922806;-72
2021/10/13 00:50:03;;;;;;;14.85;13.40;;;;;;;11.26;65.88;100353.73;443207;118;931257;-73
2021/10/13 00:51:07;;;;;;;16.84;14.60;;;;;;;11.26;65.82;100357.30;435435;120;923199;-72
2021/10/13 00:52:13;;;;;;;15.27;13.72;;;;;;;11.25;65.80;100358.36;437272;120;922798;-72
2021/10/13 00:53:17;;;;;;;15.78;14.12;;;;;;;11.24;65.77;100364.91;439753;118;922910;-72
2021/10/13 00:54:24;;;;;;;14.19;12.79;;;;;;;11.23;65.78;100355.04;440215;118;922881;-73
2021/10/13 00:55:29;;;;;;;16.39;13.64;;;;;;;11.21;65.75;100357.14;444519;117;923313;-73
2021/10/13 00:56:33;;;;;;;16.47;14.18;;;;;;;11.19;65.73;100361.98;438045;118;922651;-74
2021/10/13 00:57:36;;;;;;;15.15;13.56;;;;;;;11.17;65.72;100360.55;437790;118;923501;-73
2021/10/13 00:58:39;;;;;;;14.21;12.86;;;;;;;11.16;65.64;100358.87;435975;120;923155;-73
2021/10/13 00:59:43;;;;;;;14.65;13.19;;;;;;;11.12;65.60;100363.13;437510;119;922739;-73
2021/10/13 01:00:50;;;;;;;16.07;14.24;;;;;;;11.08;65.58;100367.36;444468;118;922534;-73
2021/10/13 01:02:03;;;;;;;14.47;13.08;;;;;;;11.04;65.69;100361.50;437982;120;930481;-73
2021/10/13 01:03:28;;;;;;;16.92;13.15;;;;;;;11.02;65.82;100362.80;440592;117;923007;-73
2021/10/13 01:04:58;;;;;;;15.34;13.75;;;;;;;11.10;65.92;100360.61;470119;110;947209;-72
2021/10/13 01:06:21;;;;;;;14.57;13.12;;;;;;;10.99;65.94;100366.79;458982;114;922609;-72
2021/10/13 01:07:52;;;;;;;14.47;13.17;;;;;;;10.99;66.05;100368.68;459489;112;923097;-71
2021/10/13 01:09:08;;;;;;;13.66;12.34;;;;;;;10.98;66.11;100353.36;460791;112;922989;-72
2021/10/13 01:10:28;;;;;;;14.14;12.67;;;;;;;10.96;66.12;100364.52;463816;112;922504;-72
2021/10/13 01:11:44;;;;;;;14.88;13.34;;;;;;;10.95;66.18;100362.01;458499;112;922555;-71
2021/10/13 01:12:54;;;;;;;15.77;14.23;;;;;;;10.94;66.15;100363.89;464490;112;922536;-71
2021/10/13 01:14:22;;;;;;;16.96;13.81;;;;;;;10.93;66.10;100366.84;465144;112;923064;-71
2021/10/13 01:15:48;;;;;;;14.51;13.23;;;;;;;10.91;66.09;100358.06;465510;111;922549;-74
2021/10/13 01:17:09;;;;;;;16.68;15.12;;;;;;;10.90;66.10;100354.50;465915;112;923502;-71
2021/10/13 01:18:16;;;;;;;16.31;13.99;;;;;;;10.88;66.12;100349.25;466223;112;922586;-73
2021/10/13 01:19:32;;;;;;;15.28;13.92;;;;;;;10.88;66.10;100353.88;466215;112;923268;-72
2021/10/13 01:21:00;;;;;;;13.76;12.54;;;;;;;10.87;66.13;100347.58;466503;112;922632;-72
2021/10/13 01:22:43;;;;;;;13.82;12.61;;;;;;;10.86;66.07;100343.17;468448;112;922624;-71
2021/10/13 01:24:11;;;;;;;11.52;10.53;;;;;;;10.85;66.02;100343.42;467161;112;922749;-72
2021/10/13 01:25:21;;;;;;;11.58;10.51;;;;;;;10.82;65.96;100352.87;469303;112;922779;-72
2021/10/13 01:26:30;;;;;;;11.29;10.39;;;;;;;10.82;65.94;100354.75;469367;112;922454;-72
2021/10/13 01:27:55;;;;;;;10.58;9.64;;;;;;;10.81;65.92;100355.81;465545;112;922481;-72
2021/10/13 01:29:02;;;;;;;10.36;9.56;;;;;;;10.79;65.90;100357.94;464572;112;923070;-72
2021/10/13 01:30:07;;;;;;;10.36;9.47;;;;;;;10.78;65.86;100364.45;464720;112;922569;-72
2021/10/13 01:31:14;;;;;;;9.78;8.98;;;;;;;10.77;65.82;100358.16;463704;112;922523;-71
2021/10/13 01:32:21;;;;;;;9.44;8.73;;;;;;;10.77;65.79;100352.70;464947;112;923386;-71
2021/10/13 01:33:28;;;;;;;9.67;8.97;;;;;;;10.77;65.70;100344.52;463942;112;923302;-72
2021/10/13 01:34:35;;;;;;;10.44;9.52;;;;;;;10.77;65.64;100340.95;463376;112;922700;-73
2021/10/13 01:35:42;;;;;;;10.68;9.77;;;;;;;10.76;65.60;100345.57;464967;111;922636;-71
2021/10/13 01:36:49;;;;;;;10.56;9.72;;;;;;;10.76;65.52;100344.73;465644;112;923130;-71
2021/10/13 01:38:03;;;;;;;10.52;9.43;;;;;;;10.85;65.47;100346.15;471601;110;947006;-72
2021/10/13 01:39:08;;;;;;;12.01;10.88;;;;;;;10.73;65.41;100347.91;459315;114;922492;-72
2021/10/13 01:40:15;;;;;;;11.66;10.27;;;;;;;10.72;65.33;100346.24;456606;114;922600;-73
2021/10/13 01:41:21;;;;;;;11.22;10.31;;;;;;;10.70;65.30;100359.25;457226;114;922670;-72
2021/10/13 01:42:26;;;;;;;11.94;10.86;;;;;;;10.69;65.25;100363.89;457561;114;922888;-72
2021/10/13 01:43:33;;;;;;;11.46;10.52;;;;;;;10.66;65.27;100356.14;457104;114;922439;-71
2021/10/13 01:44:38;;;;;;;12.29;11.12;;;;;;;10.65;65.31;100359.91;446829;117;923129;-72
2021/10/13 01:45:45;;;;;;;12.39;11.16;;;;;;;10.63;65.37;100362.05;443490;118;923100;-72
2021/10/13 01:46:48;;;;;;;10.90;9.96;;;;;;;10.62;65.44;100357.64;457598;114;922727;-72
2021/10/13 01:47:53;;;;;;;10.42;9.43;;;;;;;10.62;65.46;100354.92;457646;114;922664;-72
2021/10/13 01:49:00;;;;;;;10.34;9.52;;;;;;;10.64;65.47;100354.70;456879;114;923151;-72
2021/10/13 01:50:05;;;;;;;10.33;9.39;;;;;;;10.63;65.49;100351.14;456691;114;922705;-70
2021/10/13 01:51:10;;;;;;;11.06;10.10;;;;;;;10.63;65.45;100359.33;456409;114;922533;-69
2021/10/13 01:52:15;;;;;;;11.03;10.03;;;;;;;10.65;65.48;100353.62;455585;114;922656;-69
2021/10/13 01:53:22;;;;;;;11.74;10.54;;;;;;;10.65;65.49;100353.62;455962;114;922626;-72
2021/10/13 01:54:26;;;;;;;11.04;10.05;;;;;;;10.65;65.53;100353.62;441479;118;923190;-71
2021/10/13 01:55:30;;;;;;;11.27;10.28;;;;;;;10.66;65.47;100355.30;456721;114;923125;-72
2021/10/13 01:56:36;;;;;;;10.92;10.02;;;;;;;10.67;65.33;100354.25;456828;114;930601;-73
2021/10/13 01:57:43;;;;;;;10.06;9.22;;;;;;;10.67;65.25;100351.52;456830;114;923100;-71
2021/10/13 01:58:47;;;;;;;10.72;9.75;;;;;;;10.67;65.26;100356.98;456648;114;922811;-73
2021/10/13 01:59:53;;;;;;;11.79;10.76;;;;;;;10.66;65.28;100350.69;457192;114;923044;-73
2021/10/13 02:00:59;;;;;;;14.16;10.81;;;;;;;10.66;65.35;100353.41;456845;114;923483;-72
2021/10/13 02:02:04;;;;;;;11.80;10.79;;;;;;;10.67;65.39;100354.25;457578;114;923166;-72
2021/10/13 02:03:09;;;;;;;11.53;10.38;;;;;;;10.69;65.36;100357.61;457819;114;922508;-72
2021/10/13 02:04:14;;;;;;;10.55;9.69;;;;;;;10.69;65.34;100360.33;457383;114;922899;-72
2021/10/13 02:05:19;;;;;;;11.96;10.86;;;;;;;10.68;65.22;100359.49;457378;114;923040;-73
2021/10/13 02:06:26;;;;;;;11.33;10.13;;;;;;;10.67;65.18;100356.98;457304;114;923027;-71
2021/10/13 02:07:31;;;;;;;11.52;10.33;;;;;;;10.65;65.20;100364.53;456511;114;922560;-73
2021/10/13 02:08:37;;;;;;;11.43;9.84;;;;;;;10.65;65.22;100361.80;456163;114;922573;-72
2021/10/13 02:09:42;;;;;;;10.82;9.95;;;;;;;10.64;65.21;100368.34;455290;114;922475;-70
2021/10/13 02:10:49;;;;;;;11.17;10.09;;;;;;;10.62;65.25;100359.53;455831;114;922542;-73
2021/10/13 02:11:55;;;;;;;10.94;10.04;;;;;;;10.62;65.27;100362.26;457038;114;922611;-72
2021/10/13 02:13:00;;;;;;;11.93;10.87;;;;;;;10.60;65.30;100358.91;456317;114;923018;-72
2021/10/13 02:14:10;;;;;;;12.65;11.09;;;;;;;10.60;65.40;100350.73;456222;114;922596;-71
2021/10/13 02:15:15;;;;;;;11.18;10.15;;;;;;;10.62;65.53;100351.35;456143;114;922695;-73
2021/10/13 02:16:21;;;;;;;13.10;11.93;;;;;;;10.63;65.57;100347.58;457369;114;922702;-71
2021/10/13 02:17:25;;;;;;;13.26;12.15;;;;;;;10.64;65.62;100354.70;456868;114;923031;-71
2021/10/13 02:18:30;;;;;;;11.45;10.56;;;;;;;10.64;65.69;100354.70;448762;117;922890;-71
2021/10/13 02:19:34;;;;;;;12.30;10.56;;;;;;;10.65;65.73;100349.02;456752;114;922587;-71
2021/10/13 02:20:41;;;;;;;11.87;10.86;;;;;;;10.66;65.72;100350.69;457467;114;922553;-72
2021/10/13 02:21:51;;;;;;;13.13;11.18;;;;;;;10.68;65.78;100354.04;456968;114;923060;-71
2021/10/13 02:22:57;;;;;;;12.70;11.36;;;;;;;10.70;65.76;100353.80;457033;114;923098;-72
2021/10/13 02:24:02;;;;;;;12.06;10.96;;;;;;;10.72;65.74;100354.42;456882;114;923148;-71
2021/10/13 02:25:06;;;;;;;13.46;12.24;;;;;;;10.71;65.75;100350.86;457318;114;922560;-72
2021/10/13 02:26:18;;;;;;;12.18;11.18;;;;;;;10.71;65.77;100347.29;456688;114;930284;-71
2021/10/13 02:27:43;;;;;;;12.96;11.96;;;;;;;10.72;65.78;100351.70;446643;117;922763;-73
2021/10/13 02:28:52;;;;;;;12.77;11.49;;;;;;;10.72;65.77;100354.42;442347;117;922651;-73
2021/10/13 02:29:56;;;;;;;12.73;11.48;;;;;;;10.73;65.76;100356.09;439516;118;923430;-71
2021/10/13 02:30:59;;;;;;;12.45;11.18;;;;;;;10.73;65.76;100351.48;455915;114;923425;-69
2021/10/13 02:32:03;;;;;;;11.68;10.72;;;;;;;10.74;65.76;100355.05;455967;114;923079;-73
2021/10/13 02:33:07;;;;;;;12.66;11.55;;;;;;;10.74;65.75;100358.61;456312;114;922705;-71
2021/10/13 02:34:12;;;;;;;13.50;10.34;;;;;;;10.73;65.62;100350.64;456390;114;922522;-72
2021/10/13 02:35:15;;;;;;;11.96;10.91;;;;;;;10.72;65.50;100351.70;456233;114;923216;-71
2021/10/13 02:36:20;;;;;;;11.28;10.19;;;;;;;10.67;65.40;100360.55;456574;114;922548;-72
2021/10/13 02:37:23;;;;;;;10.32;9.39;;;;;;;10.63;65.40;100363.94;456870;114;922632;-69
2021/10/13 02:38:27;;;;;;;12.44;11.13;;;;;;;10.59;65.37;100354.50;456802;114;922521;-74
2021/10/13 02:39:30;;;;;;;11.65;10.68;;;;;;;10.54;65.45;100357.89;457210;114;923013;-72
2021/10/13 02:40:34;;;;;;;11.11;10.04;;;;;;;10.51;65.59;100354.78;457166;114;922583;-72
2021/10/13 02:41:37;;;;;;;10.85;9.89;;;;;;;10.49;65.69;100355.00;457237;114;930163;-71
2021/10/13 02:42:41;;;;;;;10.91;9.89;;;;;;;10.47;65.73;100351.67;457288;114;930665;-73
2021/10/13 02:43:44;;;;;;;12.72;11.57;;;;;;;10.46;65.85;100350.00;456905;114;930343;-71
2021/10/13 02:44:48;;;;;;;13.25;12.04;;;;;;;10.47;66.02;100346.22;457393;114;930417;-72
2021/10/13 02:46:00;;;;;;;13.69;12.57;;;;;;;10.49;66.16;100345.98;456957;114;922955;-71
2021/10/13 02:47:23;;;;;;;13.10;11.81;;;;;;;10.50;66.25;100340.31;457415;114;923033;-71
2021/10/13 02:48:30;;;;;;;12.38;11.29;;;;;;;10.53;66.29;100345.31;456814;114;923092;-71
2021/10/13 02:49:45;;;;;;;14.56;12.72;;;;;;;10.57;66.36;100345.73;456476;114;922582;-71
2021/10/13 02:50:56;;;;;;;16.47;15.21;;;;;;;10.60;66.37;100342.55;455342;114;922545;-72
2021/10/13 02:52:14;;;;;;;15.11;13.79;;;;;;;10.62;66.38;100348.63;455398;114;922480;-71
2021/10/13 02:53:34;;;;;;;14.74;13.32;;;;;;;10.67;66.41;100351.52;455085;114;922706;-72
2021/10/13 02:54:47;;;;;;;12.25;11.27;;;;;;;10.70;66.41;100351.06;456327;114;923161;-73
2021/10/13 02:56:03;;;;;;;14.43;11.88;;;;;;;10.71;66.39;100344.56;456457;114;922623;-72
2021/10/13 02:57:08;;;;;;;12.91;11.88;;;;;;;10.75;66.39;100337.63;456501;114;922827;-72
2021/10/13 02:58:23;;;;;;;12.66;11.39;;;;;;;10.76;66.37;100339.28;456240;114;923184;-73
2021/10/13 02:59:33;;;;;;;15.97;12.09;;;;;;;10.79;66.31;100333.39;456765;114;923050;-70
2021/10/13 03:00:46;;;;;;;12.98;11.73;;;;;;;10.94;66.26;100333.05;472471;110;947874;-72
2021/10/13 03:01:53;;;;;;;11.82;10.71;;;;;;;10.84;66.26;100341.75;461189;113;923036;-72
2021/10/13 03:03:13;;;;;;;12.97;11.83;;;;;;;10.85;66.24;100327.05;461668;113;922984;-73
2021/10/13 03:04:17;;;;;;;13.30;12.12;;;;;;;10.87;66.19;100325.76;463540;113;923508;-70
2021/10/13 03:05:23;;;;;;;14.07;12.83;;;;;;;10.90;66.09;100324.49;462797;113;923143;-72
2021/10/13 03:06:41;;;;;;;14.62;13.26;;;;;;;10.92;66.05;100319.63;464551;113;922662;-71
2021/10/13 03:07:47;;;;;;;13.94;12.75;;;;;;;10.94;65.99;100322.98;464861;113;922843;-71
2021/10/13 03:08:52;;;;;;;13.31;12.03;;;;;;;10.97;65.95;100327.17;465018;113;922531;-73
2021/10/13 03:09:58;;;;;;;13.64;12.26;;;;;;;10.98;65.92;100335.11;464754;113;922594;-72
2021/10/13 03:11:03;;;;;;;12.21;11.16;;;;;;;10.99;65.85;100334.05;464981;113;922882;-71
2021/10/13 03:12:09;;;;;;;13.58;11.19;;;;;;;11.00;65.81;100335.73;464563;112;922508;-74
2021/10/13 03:13:16;;;;;;;12.11;11.01;;;;;;;11.02;65.79;100341.80;464183;113;930396;-71
2021/10/13 03:14:22;;;;;;;12.22;11.14;;;;;;;11.03;65.81;100328.97;464270;113;923122;-73
2021/10/13 03:15:27;;;;;;;13.94;12.61;;;;;;;11.04;65.73;100319.73;465609;112;923220;-72
2021/10/13 03:16:33;;;;;;;13.94;12.45;;;;;;;11.06;65.66;100317.63;464716;113;922801;-72
2021/10/13 03:17:37;;;;;;;12.12;11.07;;;;;;;11.06;65.67;100317.63;465448;113;930326;-70
2021/10/13 03:18:42;;;;;;;12.75;11.54;;;;;;;11.06;65.66;100307.55;465330;113;923101;-71
2021/10/13 03:19:47;;;;;;;12.50;11.02;;;;;;;11.07;65.65;100317.41;464733;113;922632;-70
2021/10/13 03:20:52;;;;;;;14.29;11.45;;;;;;;11.08;65.65;100319.05;465051;113;930467;-73
2021/10/13 03:21:56;;;;;;;11.98;10.79;;;;;;;11.09;65.63;100323.45;465222;113;923001;-71
2021/10/13 03:23:00;;;;;;;12.21;11.01;;;;;;;11.10;65.61;100322.41;465539;113;922608;-73
2021/10/13 03:24:04;;;;;;;12.00;11.02;;;;;;;11.11;65.59;100315.89;464934;113;922413;-72
2021/10/13 03:25:07;;;;;;;11.78;10.78;;;;;;;11.12;65.62;100319.47;465449;113;922546;-72
2021/10/13 03:26:13;;;;;;;11.64;10.22;;;;;;;11.11;65.61;100315.89;465471;113;922562;-70
2021/10/13 03:27:17;;;;;;;11.94;10.72;;;;;;;11.12;65.60;100309.38;465272;113;930379;-72
2021/10/13 03:28:20;;;;;;;12.48;10.84;;;;;;;11.13;65.59;100302.88;465262;113;922999;-71
2021/10/13 03:29:23;;;;;;;12.09;10.95;;;;;;;11.13;65.59;100308.33;464609;113;922903;-71
2021/10/13 03:30:28;;;;;;;11.46;10.35;;;;;;;11.14;65.60;100309.14;464744;113;922576;-73
2021/10/13 03:31:32;;;;;;;12.14;11.00;;;;;;;11.15;65.60;100308.92;464628;113;930107;-72
2021/10/13 03:32:35;;;;;;;12.79;10.04;;;;;;;11.16;65.62;100307.03;464072;113;923040;-70
2021/10/13 03:33:39;;;;;;;11.94;10.77;;;;;;;11.17;65.61;100309.55;463808;112;930256;-71
2021/10/13 03:34:42;;;;;;;14.06;10.89;;;;;;;11.18;65.62;100303.03;464724;112;922588;-71
2021/10/13 03:35:46;;;;;;;11.49;10.58;;;;;;;11.20;65.64;100302.78;466261;113;930268;-71
2021/10/13 03:36:51;;;;;;;12.28;10.42;;;;;;;11.22;65.66;100314.32;464757;113;922845;-72
2021/10/13 03:37:56;;;;;;;11.28;9.75;;;;;;;11.24;65.67;100314.94;464643;113;923038;-72
2021/10/13 03:39:00;;;;;;;11.63;10.49;;;;;;;11.25;65.65;100316.58;465427;113;922644;-69
2021/10/13 03:40:04;;;;;;;11.84;10.81;;;;;;;11.27;65.65;100312.58;464615;113;923065;-73
2021/10/13 03:41:08;;;;;;;12.56;10.94;;;;;;;11.29;65.56;100310.47;465064;113;930284;-73
2021/10/13 03:42:11;;;;;;;16.81;11.51;;;;;;;11.29;65.56;100310.47;465299;113;922572;-73
2021/10/13 03:43:14;;;;;;;11.72;10.60;;;;;;;11.30;65.62;100306.66;464667;113;922849;-72
2021/10/13 03:44:21;;;;;;;18.35;11.59;;;;;;;11.30;65.58;100303.92;464038;113;923108;-71
2021/10/13 03:45:25;;;;;;;13.62;10.59;;;;;;;11.32;65.59;100300.98;455391;115;930374;-70
2021/10/13 03:46:28;;;;;;;14.10;11.27;;;;;;;11.33;65.54;100312.73;455598;115;922823;-71
2021/10/13 03:47:32;;;;;;;12.65;11.16;;;;;;;11.33;65.57;100302.66;465407;113;922881;-73
2021/10/13 03:48:35;;;;;;;12.20;10.88;;;;;;;11.34;65.54;100309.79;464432;112;930360;-72
2021/10/13 03:49:39;;;;;;;11.71;10.56;;;;;;;11.37;65.48;100298.41;465569;113;922484;-72
2021/10/13 03:50:44;;;;;;;11.68;10.71;;;;;;;11.38;65.50;100304.70;464709;112;922616;-71
2021/10/13 03:51:48;;;;;;;12.12;10.78;;;;;;;11.39;65.41;100298.19;464985;112;923094;-72
2021/10/13 03:52:51;;;;;;;12.85;10.48;;;;;;;11.39;65.42;100299.02;464321;113;922891;-71
2021/10/13 03:53:55;;;;;;;11.35;10.04;;;;;;;11.40;65.42;100308.88;463494;113;923033;-72
2021/10/13 03:54:58;;;;;;;14.43;10.52;;;;;;;11.41;65.37;100305.06;464502;113;930348;-71
2021/10/13 03:56:01;;;;;;;14.86;11.73;;;;;;;11.40;65.35;100308.05;466554;113;923020;-73
2021/10/13 03:57:05;;;;;;;11.91;10.76;;;;;;;11.40;65.38;100310.78;465083;113;930452;-72
2021/10/13 03:58:08;;;;;;;12.57;11.27;;;;;;;11.40;65.43;100313.51;465175;113;930448;-73
2021/10/13 03:59:12;;;;;;;12.15;11.05;;;;;;;11.39;65.47;100304.48;465557;113;923523;-72
2021/10/13 04:00:18;;;;;;;12.71;11.18;;;;;;;11.42;65.47;100317.66;463842;113;930860;-71
2021/10/13 04:01:22;;;;;;;15.97;10.81;;;;;;;11.43;65.46;100313.04;457700;113;923069;-73
2021/10/13 04:02:25;;;;;;;13.40;10.60;;;;;;;11.44;65.43;100315.55;457789;114;923125;-73
2021/10/13 04:03:29;;;;;;;12.19;11.05;;;;;;;11.45;65.35;100324.58;457795;114;930339;-73
2021/10/13 04:04:33;;;;;;;13.38;10.58;;;;;;;11.44;65.35;100320.17;457556;114;930320;-72
2021/10/13 04:05:36;;;;;;;12.09;10.54;;;;;;;11.40;65.29;100318.97;457666;114;930516;-74
2021/10/13 04:06:40;;;;;;;17.02;11.52;;;;;;;11.35;65.39;100316.92;457460;114;922603;-73
2021/10/13 04:07:44;;;;;;;13.96;11.25;;;;;;;11.33;65.63;100304.55;458023;113;922583;-71
2021/10/13 04:08:48;;;;;;;15.91;12.87;;;;;;;11.34;65.77;100308.95;457614;115;922899;-73
2021/10/13 04:09:52;;;;;;;21.81;14.61;;;;;;;11.34;65.86;100308.95;456960;113;923080;-72
2021/10/13 04:10:56;;;;;;;16.36;13.76;;;;;;;11.36;65.92;100304.92;457882;115;922515;-72
2021/10/13 04:11:59;;;;;;;13.66;12.33;;;;;;;11.38;65.92;100311.00;457486;114;923051;-72
2021/10/13 04:13:02;;;;;;;13.28;11.78;;;;;;;11.40;65.89;100308.05;457050;114;930464;-71
2021/10/13 04:14:06;;;;;;;13.43;12.01;;;;;;;11.41;65.88;100304.27;458018;113;922746;-72
2021/10/13 04:15:10;;;;;;;13.49;11.86;;;;;;;11.42;65.93;100316.83;457306;114;923034;-71
2021/10/13 04:16:14;;;;;;;17.65;11.68;;;;;;;11.44;66.00;100306.53;457494;114;930470;-72
2021/10/13 04:17:18;;;;;;;15.18;11.29;;;;;;;11.45;66.03;100303.58;457622;114;922600;-72
2021/10/13 04:18:22;;;;;;;14.87;12.27;;;;;;;11.46;66.05;100312.61;457348;114;922644;-74
2021/10/13 04:19:25;;;;;;;12.99;11.04;;;;;;;11.48;66.09;100310.46;457473;114;922391;-71
2021/10/13 04:20:30;;;;;;;13.51;11.77;;;;;;;11.48;66.12;100315.92;457618;114;922564;-71
2021/10/13 04:21:33;;;;;;;13.44;12.06;;;;;;;11.49;66.12;100306.67;457608;114;922634;-71
2021/10/13 04:22:37;;;;;;;14.44;12.08;;;;;;;11.49;66.14;100312.13;457533;115;923054;-71
2021/10/13 04:23:40;;;;;;;12.55;11.12;;;;;;;11.50;66.20;100306.45;457562;114;925426;-71
2021/10/13 04:24:44;;;;;;;15.63;12.18;;;;;;;11.51;66.26;100305.41;458064;115;922611;-73
2021/10/13 04:25:47;;;;;;;15.68;12.36;;;;;;;11.54;66.27;100317.75;457359;114;922632;-71
2021/10/13 04:26:51;;;;;;;16.21;11.96;;;;;;;11.55;66.27;100320.26;457772;114;930432;-71
2021/10/13 04:27:54;;;;;;;87.11;16.83;;;;;;;11.55;66.19;100322.98;457645;114;930413;-71
2021/10/13 04:28:57;;;;;;;14.84;12.49;;;;;;;11.53;66.15;100335.19;457885;113;922974;-72
2021/10/13 04:30:03;;;;;;;39.19;13.48;;;;;;;11.51;66.18;100342.79;457666;113;922954;-73
2021/10/13 04:31:06;;;;;;;75.21;15.31;;;;;;;11.47;66.20;100345.12;457775;113;922595;-69
2021/10/13 04:32:10;;;;;;;24.47;12.76;;;;;;;11.43;66.31;100356.72;457239;114;922603;-70
2021/10/13 04:33:14;;;;;;;36.46;13.44;;;;;;;11.40;66.44;100362.64;457785;115;930547;-73
2021/10/13 04:34:17;;;;;;;37.89;12.64;;;;;;;11.38;66.56;100351.94;457129;113;924046;-72
2021/10/13 04:35:21;;;;;;;33.41;12.64;;;;;;;11.37;66.74;100360.34;457276;113;922653;-71
2021/10/13 04:36:26;;;;;;;16.35;12.37;;;;;;;11.37;66.90;100355.73;457392;113;923046;-72
2021/10/13 04:37:29;;;;;;;15.64;11.90;;;;;;;11.39;67.01;100353.62;457278;114;922525;-70
2021/10/13 04:38:33;;;;;;;27.37;12.54;;;;;;;11.43;67.05;100349.37;457438;113;931001;-72
2021/10/13 04:39:37;;;;;;;18.37;12.21;;;;;;;11.46;67.07;100345.37;457589;114;930633;-72
2021/10/13 04:40:41;;;;;;;21.39;13.03;;;;;;;11.49;67.08;100340.27;457762;113;930354;-72
2021/10/13 04:41:44;;;;;;;32.58;13.60;;;;;;;11.51;67.12;100338.16;457777;114;922981;-73
2021/10/13 04:42:48;;;;;;;21.51;13.14;;;;;;;11.55;67.16;100349.45;457355;114;923827;-72
2021/10/13 04:43:51;;;;;;;17.49;11.87;;;;;;;11.57;67.18;100342.72;457581;114;930476;-71
2021/10/13 04:44:55;;;;;;;34.11;12.73;;;;;;;11.61;67.17;100338.47;457605;114;923006;-72
2021/10/13 04:45:58;;;;;;;26.43;12.39;;;;;;;11.65;67.15;100334.21;457325;114;923238;-70
2021/10/13 04:47:01;;;;;;;18.38;13.62;;;;;;;11.66;67.15;100319.50;457582;113;922830;-72
2021/10/13 04:48:05;;;;;;;18.32;12.59;;;;;;;11.71;67.07;100318.80;457883;114;922890;-71
2021/10/13 04:49:09;;;;;;;14.87;12.43;;;;;;;11.73;67.07;100316.73;457669;114;931066;-72
2021/10/13 04:50:12;;;;;;;17.31;13.44;;;;;;;11.76;67.02;100312.69;457753;113;930436;-72
2021/10/13 04:51:16;;;;;;;18.36;12.67;;;;;;;11.77;67.00;100314.36;457794;113;923122;-72
2021/10/13 04:52:19;;;;;;;15.61;12.58;;;;;;;11.78;66.97;100319.60;457709;113;922477;-72
2021/10/13 04:53:23;;;;;;;38.41;13.39;;;;;;;11.79;66.91;100320.44;457197;114;923051;-71
2021/10/13 04:54:26;;;;;;;42.57;14.43;;;;;;;11.79;66.86;100331.36;457395;114;922674;-73
2021/10/13 04:55:30;;;;;;;61.50;14.13;;;;;;;11.76;66.88;100324.45;457339;113;923095;-70
2021/10/13 04:56:34;;;;;;;21.29;12.86;;;;;;;11.75;66.97;100295.46;457135;115;922612;-70
2021/10/13 04:57:37;;;;;;;17.01;12.44;;;;;;;11.75;67.07;100273.61;457974;114;923018;-72